createdAt,value
2022-10-17T00:01:35.497Z,84.46
2022-10-17T00:04:03.571Z,84.19
2022-10-17T00:06:31.665Z,84.50
2022-10-17T00:08:59.664Z,84.71
2022-10-17T00:11:27.862Z,84.49
2022-10-17T00:13:57.342Z,84.80
2022-10-17T00:16:26.141Z,84.85
2022-10-17T00:18:54.481Z,84.70
2022-10-17T00:21:23.024Z,84.57
2022-10-17T00:23:51.349Z,85.09
2022-10-17T00:26:19.498Z,85.12
2022-10-17T00:28:48.379Z,85.03
2022-10-17T00:31:19.394Z,85.01
2022-10-17T00:33:47.945Z,84.93
2022-10-17T00:36:17.481Z,85.08
2022-10-17T00:38:47.255Z,85.21
2022-10-17T00:41:17.854Z,84.90
2022-10-17T00:43:55.366Z,85.32
2022-10-17T00:46:26.589Z,85.28
2022-10-17T00:48:56.359Z,85.24
2022-10-17T00:51:29.616Z,85.17
2022-10-17T00:53:57.785Z,85.10
2022-10-17T00:56:25.922Z,85.19
2022-10-17T00:58:54.029Z,85.35
2022-10-17T01:01:22.086Z,85.16
2022-10-17T01:03:51.655Z,85.40
2022-10-17T01:06:19.802Z,85.18
2022-10-17T01:08:47.997Z,85.19
2022-10-17T01:11:31.995Z,85.32
2022-10-17T01:14:04.447Z,85.18
2022-10-17T01:16:40.211Z,85.40
2022-10-17T01:19:29.496Z,85.38
2022-10-17T01:22:01.264Z,85.27
2022-10-17T01:24:48.915Z,85.44
2022-10-17T01:27:45.959Z,85.39
2022-10-17T01:30:46.558Z,85.34
2022-10-17T01:33:22.383Z,85.12
2022-10-17T01:35:56.196Z,85.17
2022-10-17T01:38:28.548Z,84.95
2022-10-17T01:41:01.601Z,85.23
2022-10-17T01:43:34.489Z,85.03
2022-10-17T01:46:08.326Z,85.21
2022-10-17T01:48:39.093Z,84.95
2022-10-17T01:51:10.052Z,85.21
2022-10-17T01:53:40.539Z,85.13
2022-10-17T01:56:10.349Z,85.25
2022-10-17T01:58:42.596Z,85.30
2022-10-17T02:01:13.094Z,85.27
2022-10-17T02:03:44.709Z,84.92
2022-10-17T02:06:12.711Z,84.91
2022-10-17T02:08:46.105Z,84.78
2022-10-17T02:11:17.595Z,85.08
2022-10-17T02:14:02.589Z,85.07
2022-10-17T02:16:36.997Z,84.90
2022-10-17T02:19:25.919Z,84.71
2022-10-17T02:22:02.289Z,84.73
2022-10-17T02:24:36.042Z,84.74
2022-10-17T02:27:07.687Z,84.86
2022-10-17T02:29:39.602Z,84.85
2022-10-17T02:32:11.195Z,84.84
2022-10-17T02:34:43.461Z,84.85
2022-10-17T02:37:14.723Z,84.81
2022-10-17T02:39:44.048Z,84.79
2022-10-17T02:42:13.407Z,84.69
2022-10-17T02:44:44.280Z,84.71
2022-10-17T02:47:19.142Z,84.76
2022-10-17T02:49:52.025Z,84.44
2022-10-17T02:52:27.364Z,84.76
2022-10-17T02:54:59.242Z,84.63
2022-10-17T02:57:31.862Z,84.76
2022-10-17T03:00:02.307Z,84.65
2022-10-17T03:02:30.549Z,84.61
2022-10-17T03:05:00.085Z,84.50
2022-10-17T03:07:28.115Z,84.18
2022-10-17T03:09:56.091Z,84.01
2022-10-17T03:12:24.093Z,84.03
2022-10-17T03:14:52.085Z,84.14
2022-10-17T03:17:20.114Z,83.90
2022-10-17T03:19:48.123Z,83.81
2022-10-17T03:22:17.531Z,83.77
2022-10-17T03:24:45.540Z,84.06
2022-10-17T03:27:13.532Z,84.04
2022-10-17T03:29:41.535Z,83.99
2022-10-17T03:32:09.668Z,83.61
2022-10-17T03:34:37.687Z,83.71
2022-10-17T03:37:05.733Z,83.72
2022-10-17T03:39:37.381Z,84.04
2022-10-17T03:42:05.378Z,84.05
2022-10-17T03:44:33.357Z,83.81
2022-10-17T03:47:01.448Z,84.11
2022-10-17T03:49:29.431Z,83.92
2022-10-17T03:51:57.472Z,83.90
2022-10-17T03:54:25.477Z,83.78
2022-10-17T03:56:54.877Z,83.88
2022-10-17T03:59:22.869Z,83.75
2022-10-17T04:01:50.929Z,83.72
2022-10-17T04:04:18.918Z,83.55
2022-10-17T04:06:46.905Z,83.78
2022-10-17T04:09:14.972Z,83.93
2022-10-17T04:11:42.965Z,83.72
2022-10-17T04:14:12.304Z,83.52
2022-10-17T04:16:40.325Z,83.96
2022-10-17T04:19:08.323Z,83.73
2022-10-17T04:21:36.345Z,83.92
2022-10-17T04:24:04.530Z,83.67
2022-10-17T04:26:32.550Z,83.68
2022-10-17T04:29:00.558Z,83.70
2022-10-17T04:31:29.925Z,83.83
2022-10-17T04:33:57.949Z,83.73
2022-10-17T04:36:25.970Z,83.76
2022-10-17T04:38:53.951Z,83.85
2022-10-17T04:41:22.142Z,83.72
2022-10-17T04:43:51.346Z,84.15
2022-10-17T04:46:19.675Z,83.95
2022-10-17T04:48:49.067Z,83.99
2022-10-17T04:51:20.601Z,83.82
2022-10-17T04:53:51.231Z,83.60
2022-10-17T04:56:21.963Z,83.37
2022-10-17T04:58:50.379Z,83.63
2022-10-17T05:01:20.210Z,83.60
2022-10-17T05:03:49.977Z,83.37
2022-10-17T05:06:19.560Z,83.63
2022-10-17T05:08:47.841Z,83.48
2022-10-17T05:11:20.171Z,83.83
2022-10-17T05:13:51.587Z,83.51
2022-10-17T05:16:19.925Z,83.74
2022-10-17T05:18:52.935Z,83.78
2022-10-17T05:21:21.905Z,83.72
2022-10-17T05:23:50.006Z,83.54
2022-10-17T05:26:18.642Z,83.51
2022-10-17T05:28:46.838Z,83.47
2022-10-17T05:31:15.510Z,83.71
2022-10-17T05:33:43.509Z,83.72
2022-10-17T05:36:12.867Z,83.58
2022-10-17T05:38:40.861Z,83.54
2022-10-17T05:41:08.844Z,83.93
2022-10-17T05:43:36.971Z,83.63
2022-10-17T05:46:06.139Z,83.59
2022-10-17T05:48:34.378Z,83.93
2022-10-17T05:51:03.455Z,84.07
2022-10-17T05:53:33.817Z,83.93
2022-10-17T05:56:03.057Z,83.68
2022-10-17T05:58:48.828Z,83.83
2022-10-17T06:01:18.718Z,83.60
2022-10-17T06:03:46.707Z,83.69
2022-10-17T06:06:15.472Z,83.74
2022-10-17T06:08:45.162Z,83.98
2022-10-17T06:11:14.193Z,84.04
2022-10-17T06:13:42.733Z,84.05
2022-10-17T06:16:10.763Z,83.83
2022-10-17T06:18:38.777Z,83.90
2022-10-17T06:21:08.915Z,83.90
2022-10-17T06:23:36.960Z,83.73
2022-10-17T06:26:07.863Z,83.88
2022-10-17T06:28:36.468Z,84.06
2022-10-17T06:31:06.573Z,84.12
2022-10-17T06:33:34.632Z,83.89
2022-10-17T06:36:02.971Z,84.16
2022-10-17T06:38:31.387Z,83.85
2022-10-17T06:41:08.281Z,83.98
2022-10-17T06:43:36.773Z,83.92
2022-10-17T06:46:04.863Z,83.84
2022-10-17T06:48:33.154Z,83.95
2022-10-17T06:51:01.675Z,83.66
2022-10-17T06:53:29.994Z,84.00
2022-10-17T06:56:02.933Z,83.67
2022-10-17T06:58:33.915Z,83.55
2022-10-17T07:01:02.883Z,83.86
2022-10-17T07:03:31.361Z,83.66
2022-10-17T07:05:59.654Z,83.45
2022-10-17T07:08:27.980Z,83.43
2022-10-17T07:10:56.390Z,83.34
2022-10-17T07:13:24.514Z,83.59
2022-10-17T07:18:26.381Z,83.44
2022-10-17T07:20:55.063Z,83.12
2022-10-17T07:23:23.532Z,83.32
2022-10-17T07:25:51.701Z,83.00
2022-10-17T07:28:19.915Z,83.33
2022-10-17T07:30:51.941Z,83.20
2022-10-17T07:33:23.901Z,83.14
2022-10-17T07:35:53.253Z,82.71
2022-10-17T07:38:21.252Z,82.47
2022-10-17T07:40:56.046Z,82.43
2022-10-17T07:43:24.698Z,82.71
2022-10-17T07:45:53.082Z,82.69
2022-10-17T07:48:21.893Z,82.71
2022-10-17T07:50:51.552Z,82.30
2022-10-17T07:53:19.907Z,82.17
2022-10-17T07:55:49.537Z,81.89
2022-10-17T07:58:17.618Z,81.79
2022-10-17T08:00:48.703Z,81.69
2022-10-17T08:03:16.902Z,81.66
2022-10-17T08:05:45.029Z,81.82
2022-10-17T08:08:14.403Z,81.60
2022-10-17T08:10:42.392Z,81.50
2022-10-17T08:13:10.383Z,81.58
2022-10-17T08:15:38.918Z,81.68
2022-10-17T08:18:06.899Z,81.37
2022-10-17T08:20:34.938Z,81.17
2022-10-17T08:23:02.937Z,81.13
2022-10-17T08:25:32.655Z,81.28
2022-10-17T08:28:00.861Z,80.98
2022-10-17T08:30:30.673Z,81.04
2022-10-17T08:32:58.745Z,81.29
2022-10-17T08:35:26.809Z,80.99
2022-10-17T08:37:54.807Z,81.09
2022-10-17T08:40:26.318Z,81.26
2022-10-17T08:43:20.825Z,81.49
2022-10-17T08:45:53.452Z,81.07
2022-10-17T08:48:24.397Z,81.06
2022-10-17T08:50:54.963Z,81.42
2022-10-17T08:53:27.043Z,81.26
2022-10-17T08:55:55.753Z,81.48
2022-10-17T08:58:26.909Z,81.51
2022-10-17T09:01:03.163Z,81.40
2022-10-17T09:03:44.370Z,81.29
2022-10-17T09:06:29.689Z,81.54
2022-10-17T09:09:19.314Z,81.79
2022-10-17T09:11:57.793Z,81.75
2022-10-17T09:14:43.110Z,81.60
2022-10-17T09:17:21.177Z,81.53
2022-10-17T09:20:02.984Z,81.57
2022-10-17T09:22:35.921Z,81.63
2022-10-17T09:25:06.922Z,81.50
2022-10-17T09:27:37.753Z,81.24
2022-10-17T09:30:40.451Z,81.21
2022-10-17T09:33:28.312Z,80.73
2022-10-17T09:36:05.586Z,80.34
2022-10-17T09:38:39.897Z,79.94
2022-10-17T09:41:39.370Z,79.62
2022-10-17T09:44:18.380Z,79.50
2022-10-17T09:46:58.798Z,79.45
2022-10-17T09:49:32.728Z,79.11
2022-10-17T09:52:01.771Z,79.01
2022-10-17T09:54:35.300Z,79.01
2022-10-17T09:57:06.368Z,78.99
2022-10-17T09:59:36.307Z,78.97
2022-10-17T10:02:18.309Z,78.98
2022-10-17T10:05:06.471Z,79.08
2022-10-17T10:07:36.907Z,79.11
2022-10-17T10:10:07.160Z,78.84
2022-10-17T10:12:37.573Z,79.23
2022-10-17T10:15:32.248Z,79.21
2022-10-17T10:18:01.640Z,79.02
2022-10-17T10:20:33.429Z,78.63
2022-10-17T10:23:11.974Z,78.35
2022-10-17T10:25:49.681Z,78.29
2022-10-17T10:28:18.625Z,78.45
2022-10-17T10:30:49.148Z,78.48
2022-10-17T10:33:20.404Z,78.31
2022-10-17T10:35:56.099Z,78.07
2022-10-17T10:38:24.166Z,78.28
2022-10-17T10:40:54.256Z,78.36
2022-10-17T10:43:27.121Z,78.68
2022-10-17T10:45:55.212Z,78.55
2022-10-17T10:48:26.194Z,78.32
2022-10-17T10:50:58.084Z,78.17
2022-10-17T10:53:35.400Z,78.22
2022-10-17T10:56:10.104Z,78.23
2022-10-17T10:58:43.046Z,77.98
2022-10-17T11:01:16.571Z,77.93
2022-10-17T11:03:54.726Z,77.66
2022-10-17T11:06:28.116Z,77.84
2022-10-17T11:09:13.418Z,77.64
2022-10-17T11:11:45.613Z,77.54
2022-10-17T11:14:17.847Z,77.64
2022-10-17T11:16:48.679Z,77.77
2022-10-17T11:19:25.599Z,77.81
2022-10-17T11:22:03.677Z,77.98
2022-10-17T11:24:36.361Z,77.88
2022-10-17T11:27:06.736Z,78.07
2022-10-17T11:29:36.258Z,78.16
2022-10-17T11:32:09.025Z,78.35
2022-10-17T11:34:42.512Z,78.45
2022-10-17T11:37:16.512Z,78.50
2022-10-17T11:39:49.207Z,78.42
2022-10-17T11:42:21.577Z,78.43
2022-10-17T11:44:53.525Z,78.17
2022-10-17T11:47:31.312Z,78.42
2022-10-17T11:52:57.436Z,78.51
2022-10-17T11:55:27.509Z,78.56
2022-10-17T11:58:21.567Z,78.61
2022-10-17T12:00:58.686Z,78.89
2022-10-17T12:03:45.769Z,78.88
2022-10-17T12:06:22.917Z,78.65
2022-10-17T12:08:57.508Z,78.51
2022-10-17T12:11:35.585Z,78.44
2022-10-17T12:14:05.885Z,78.40
2022-10-17T12:16:46.046Z,78.40
2022-10-17T12:19:32.645Z,78.36
2022-10-17T12:22:08.096Z,78.27
2022-10-17T12:24:40.313Z,78.45
2022-10-17T12:27:40.013Z,78.34
2022-10-17T12:30:17.791Z,78.20
2022-10-17T12:33:12.414Z,78.32
2022-10-17T12:35:40.545Z,78.57
2022-10-17T12:38:30.778Z,78.58
2022-10-17T12:41:03.757Z,78.67
2022-10-17T12:43:44.989Z,78.95
2022-10-17T12:46:13.643Z,79.19
2022-10-17T12:49:05.569Z,79.34
2022-10-17T12:52:08.916Z,79.35
2022-10-17T12:54:47.850Z,79.56
2022-10-17T12:57:34.346Z,79.77
2022-10-17T13:00:06.009Z,79.69
2022-10-17T13:02:34.625Z,79.98
2022-10-17T13:07:31.047Z,80.71
2022-10-17T13:10:05.209Z,80.78
2022-10-17T13:12:40.255Z,81.19
2022-10-17T13:15:13.344Z,81.26
2022-10-17T13:17:43.789Z,81.34
2022-10-17T13:20:25.563Z,81.41
2022-10-17T13:22:58.097Z,81.80
2022-10-17T13:25:28.307Z,81.88
2022-10-17T13:28:09.037Z,82.03
2022-10-17T13:30:38.113Z,82.24
2022-10-17T13:33:31.619Z,82.21
2022-10-17T13:36:01.102Z,82.26
2022-10-17T13:38:32.387Z,82.49
2022-10-17T13:41:23.238Z,82.62
2022-10-17T13:43:52.023Z,82.82
2022-10-17T13:46:37.255Z,82.80
2022-10-17T13:49:21.265Z,83.04
2022-10-17T13:51:53.648Z,82.96
2022-10-17T13:54:33.555Z,83.13
2022-10-17T13:57:03.626Z,83.34
2022-10-17T13:59:35.393Z,83.57
2022-10-17T14:02:03.464Z,83.46
2022-10-17T14:04:44.678Z,83.35
2022-10-17T14:07:27.908Z,83.63
2022-10-17T14:09:57.448Z,83.52
2022-10-17T14:12:26.986Z,83.56
2022-10-17T14:15:11.159Z,83.60
2022-10-17T14:17:40.509Z,83.59
2022-10-17T14:20:48.237Z,83.48
2022-10-17T14:23:21.435Z,83.64
2022-10-17T14:25:47.028Z,83.59
2022-10-17T14:28:18.407Z,83.64
2022-10-17T14:31:02.980Z,83.70
2022-10-17T14:33:32.516Z,83.53
2022-10-17T14:36:02.960Z,83.97
2022-10-17T14:38:31.221Z,83.80
2022-10-17T14:41:29.649Z,83.86
2022-10-17T14:43:59.917Z,83.92
2022-10-17T14:46:28.290Z,84.15
2022-10-17T14:48:59.984Z,84.01
2022-10-17T14:51:32.521Z,84.31
2022-10-17T14:54:20.943Z,84.47
2022-10-17T14:56:52.401Z,84.43
2022-10-17T14:59:52.139Z,84.58
2022-10-17T15:02:13.178Z,84.63
2022-10-17T15:04:41.198Z,84.73
2022-10-17T15:07:14.083Z,84.67
2022-10-17T15:09:42.519Z,84.85
2022-10-17T15:12:15.409Z,84.83
2022-10-17T15:14:45.246Z,84.89
2022-10-17T15:17:15.505Z,85.04
2022-10-17T15:19:43.582Z,85.02
2022-10-17T15:22:11.586Z,85.10
2022-10-17T15:24:39.719Z,85.19
2022-10-17T15:27:14.979Z,85.23
2022-10-17T15:29:44.482Z,85.34
2022-10-17T15:32:12.744Z,85.33
2022-10-17T15:34:40.911Z,85.30
2022-10-17T15:37:15.736Z,85.42
2022-10-17T15:39:43.721Z,85.25
2022-10-17T15:42:12.713Z,85.43
2022-10-17T15:44:44.089Z,85.62
2022-10-17T15:47:20.503Z,85.52
2022-10-17T15:49:48.518Z,85.70
2022-10-17T15:52:16.502Z,85.75
2022-10-17T15:54:44.527Z,85.67
2022-10-17T15:57:17.216Z,85.89
2022-10-17T15:59:46.892Z,85.93
2022-10-17T16:02:17.250Z,85.72
2022-10-17T16:04:45.389Z,85.70
2022-10-17T16:07:13.376Z,85.85
2022-10-17T16:09:41.381Z,85.73
2022-10-17T16:12:14.192Z,85.69
2022-10-17T16:14:42.264Z,85.86
2022-10-17T16:17:12.184Z,85.72
2022-10-17T16:19:41.686Z,85.86
2022-10-17T16:22:19.019Z,85.59
2022-10-17T16:24:47.060Z,85.63
2022-10-17T16:27:15.059Z,85.90
2022-10-17T16:29:43.063Z,85.83
2022-10-17T16:32:11.538Z,86.08
2022-10-17T16:34:40.910Z,86.04
2022-10-17T16:37:08.893Z,86.15
2022-10-17T16:39:36.899Z,86.15
2022-10-17T16:42:05.072Z,86.18
2022-10-17T16:44:33.068Z,86.18
2022-10-17T16:47:01.379Z,86.06
2022-10-17T16:49:29.362Z,86.08
2022-10-17T16:51:58.708Z,86.26
2022-10-17T16:54:26.886Z,86.44
2022-10-17T16:56:55.456Z,86.33
2022-10-17T16:59:23.625Z,86.55
2022-10-17T17:01:51.750Z,86.67
2022-10-17T17:04:19.734Z,86.32
2022-10-17T17:06:47.737Z,86.35
2022-10-17T17:09:17.130Z,86.40
2022-10-17T17:11:45.155Z,86.33
2022-10-17T17:14:13.549Z,86.24
2022-10-17T17:16:43.303Z,86.67
2022-10-17T17:19:13.132Z,86.49
2022-10-17T17:21:43.111Z,86.89
2022-10-17T17:24:11.162Z,86.77
2022-10-17T17:26:41.562Z,86.81
2022-10-17T17:29:11.689Z,86.73
2022-10-17T17:31:39.764Z,86.89
2022-10-17T17:34:08.260Z,86.80
2022-10-17T17:36:37.803Z,86.81
2022-10-17T17:39:07.468Z,86.88
2022-10-17T17:41:36.023Z,86.93
2022-10-17T17:44:06.303Z,86.76
2022-10-17T17:46:34.895Z,87.02
2022-10-17T17:49:02.909Z,87.13
2022-10-17T17:51:30.919Z,87.09
2022-10-17T17:53:58.921Z,87.23
2022-10-17T17:56:28.430Z,86.96
2022-10-17T17:58:57.870Z,86.97
2022-10-17T18:01:29.315Z,87.08
2022-10-17T18:03:58.899Z,87.00
2022-10-17T18:06:27.915Z,87.02
2022-10-17T18:08:57.871Z,86.89
2022-10-17T18:11:26.144Z,87.04
2022-10-17T18:13:55.665Z,86.98
2022-10-17T18:16:23.812Z,87.05
2022-10-17T18:18:53.266Z,86.84
2022-10-17T18:21:21.341Z,87.30
2022-10-17T18:23:50.346Z,87.33
2022-10-17T18:26:18.679Z,87.04
2022-10-17T18:28:46.769Z,87.27
2022-10-17T18:31:19.096Z,87.06
2022-10-17T18:33:47.501Z,87.14
2022-10-17T18:36:16.933Z,87.19
2022-10-17T18:38:44.987Z,87.31
2022-10-17T18:41:15.230Z,87.38
2022-10-17T18:43:45.526Z,87.19
2022-10-17T18:46:15.418Z,87.38
2022-10-17T18:48:45.312Z,87.23
2022-10-17T18:51:14.101Z,87.21
2022-10-17T18:53:44.584Z,87.23
2022-10-17T18:56:13.457Z,87.62
2022-10-17T18:58:41.960Z,87.26
2022-10-17T19:01:15.383Z,87.39
2022-10-17T19:03:44.245Z,87.30
2022-10-17T19:06:13.820Z,87.53
2022-10-17T19:08:44.012Z,87.31
2022-10-17T19:11:13.264Z,87.67
2022-10-17T19:13:41.895Z,87.53
2022-10-17T19:16:11.719Z,87.58
2022-10-17T19:18:39.803Z,87.68
2022-10-17T19:21:09.882Z,87.72
2022-10-17T19:23:38.462Z,87.81
2022-10-17T19:26:10.372Z,87.48
2022-10-17T19:28:41.503Z,87.75
2022-10-17T19:31:12.931Z,87.59
2022-10-17T19:33:42.140Z,87.69
2022-10-17T19:36:14.452Z,87.73
2022-10-17T19:38:42.596Z,87.82
2022-10-17T19:41:14.589Z,88.08
2022-10-17T19:43:43.617Z,87.88
2022-10-17T19:46:14.547Z,87.95
2022-10-17T19:48:42.575Z,88.15
2022-10-17T19:51:13.772Z,87.78
2022-10-17T19:53:41.857Z,88.02
2022-10-17T19:56:11.799Z,87.95
2022-10-17T19:58:45.439Z,87.89
2022-10-17T20:01:15.035Z,88.00
2022-10-17T20:03:43.291Z,87.77
2022-10-17T20:06:11.351Z,88.19
2022-10-17T20:08:40.171Z,88.13
2022-10-17T20:11:10.107Z,87.93
2022-10-17T20:13:39.677Z,88.27
2022-10-17T20:16:09.365Z,87.98
2022-10-17T20:18:38.155Z,87.90
2022-10-17T20:21:08.311Z,87.99
2022-10-17T20:23:36.397Z,87.96
2022-10-17T20:26:25.554Z,88.17
2022-10-17T20:28:55.803Z,88.17
2022-10-17T20:31:24.055Z,87.86
2022-10-17T20:33:55.823Z,88.04
2022-10-17T20:36:25.398Z,87.92
2022-10-17T20:38:54.567Z,87.99
2022-10-17T20:41:22.936Z,87.93
2022-10-17T20:43:52.292Z,87.94
2022-10-17T20:46:35.812Z,88.26
2022-10-17T20:49:05.709Z,88.24
2022-10-17T20:51:33.817Z,88.33
2022-10-17T20:54:02.687Z,88.46
2022-10-17T20:56:32.619Z,88.20
2022-10-17T20:59:01.980Z,88.01
2022-10-17T21:01:32.570Z,88.29
2022-10-17T21:04:21.244Z,88.35
2022-10-17T21:06:51.219Z,88.35
2022-10-17T21:09:19.394Z,88.16
2022-10-17T21:11:48.181Z,88.18
2022-10-17T21:14:16.779Z,88.21
2022-10-17T21:16:46.157Z,88.02
2022-10-17T21:19:14.831Z,88.17
2022-10-17T21:21:44.245Z,87.99
2022-10-17T21:24:14.254Z,88.36
2022-10-17T21:26:43.469Z,88.13
2022-10-17T21:29:13.146Z,88.29
2022-10-17T21:31:42.633Z,88.37
2022-10-17T21:34:13.621Z,88.38
2022-10-17T21:36:41.808Z,88.22
2022-10-17T21:39:11.130Z,88.41
2022-10-17T21:41:39.311Z,88.26
2022-10-17T21:44:09.407Z,88.31
2022-10-17T21:46:37.422Z,88.51
2022-10-17T21:49:05.420Z,88.45
2022-10-17T21:51:34.803Z,88.32
2022-10-17T21:54:05.702Z,88.11
2022-10-17T21:56:34.837Z,88.44
2022-10-17T21:59:03.244Z,88.54
2022-10-17T22:01:32.985Z,88.44
2022-10-17T22:04:04.368Z,88.47
2022-10-17T22:06:40.239Z,88.50
2022-10-17T22:09:12.432Z,88.54
2022-10-17T22:11:40.438Z,88.46
2022-10-17T22:14:13.115Z,88.46
2022-10-17T22:16:41.447Z,88.53
2022-10-17T22:19:10.321Z,88.40
2022-10-17T22:21:40.152Z,88.60
2022-10-17T22:24:10.067Z,88.69
2022-10-17T22:26:38.773Z,88.39
2022-10-17T22:29:07.864Z,88.46
2022-10-17T22:31:36.480Z,88.64
2022-10-17T22:34:05.758Z,88.61
2022-10-17T22:36:34.299Z,88.53
2022-10-17T22:39:04.735Z,88.58
2022-10-17T22:41:32.820Z,88.50
2022-10-17T22:44:00.874Z,88.73
2022-10-17T22:46:29.146Z,88.67
2022-10-17T22:48:57.163Z,88.98
2022-10-17T22:51:25.254Z,88.94
2022-10-17T22:53:53.264Z,88.73
2022-10-17T22:56:23.573Z,89.00
2022-10-17T22:58:52.107Z,88.70
2022-10-17T23:01:21.583Z,89.08
2022-10-17T23:03:49.920Z,88.83
2022-10-17T23:06:18.393Z,89.06
2022-10-17T23:08:46.494Z,88.84
2022-10-17T23:11:14.576Z,88.94
2022-10-17T23:13:43.964Z,88.78
2022-10-17T23:16:11.981Z,88.86
2022-10-17T23:18:40.255Z,88.64
2022-10-17T23:21:08.647Z,88.92
2022-10-17T23:23:37.172Z,88.70
2022-10-17T23:26:06.617Z,88.74
2022-10-17T23:28:35.637Z,88.71
2022-10-17T23:31:13.507Z,88.83
2022-10-17T23:33:41.916Z,89.03
2022-10-17T23:36:11.078Z,89.05
2022-10-17T23:38:39.208Z,88.83
2022-10-17T23:41:07.683Z,89.16
2022-10-17T23:43:36.112Z,89.19
2022-10-17T23:46:04.858Z,89.19
2022-10-17T23:48:34.289Z,88.90
2022-10-17T23:51:02.683Z,88.85
2022-10-17T23:53:30.922Z,88.98
2022-10-17T23:55:58.990Z,88.95
2022-10-17T23:58:27.087Z,88.81
